sensor_id;sensor_type;location;lat;lon;timestamp;pressure;altitude;pressure_sealevel;temperature;humidity
5691;BME280;2870;42.680;23.364;2023-07-08T00:02:09;95409.66;;;20.44;96.01
5691;BME280;2870;42.680;23.364;2023-07-08T00:04:36;95402.72;;;20.35;96.64
5691;BME280;2870;42.680;23.364;2023-07-08T00:07:04;95400.59;;;20.36;95.57
5691;BME280;2870;42.680;23.364;2023-07-08T00:09:31;95396.78;;;20.55;95.71
5691;BME280;2870;42.680;23.364;2023-07-08T00:11:57;95396.91;;;20.57;94.76
5691;BME280;2870;42.680;23.364;2023-07-08T00:14:24;95394.31;;;20.49;95.75
5691;BME280;2870;42.680;23.364;2023-07-08T00:16:51;95392.09;;;20.59;96.11
5691;BME280;2870;42.680;23.364;2023-07-08T00:19:19;95392.31;;;20.40;95.25
5691;BME280;2870;42.680;23.364;2023-07-08T00:21:49;95392.69;;;20.23;95.48
5691;BME280;2870;42.680;23.364;2023-07-08T00:24:18;95381.94;;;20.09;96.61
5691;BME280;2870;42.680;23.364;2023-07-08T00:26:44;95378.94;;;19.96;97.51
5691;BME280;2870;42.680;23.364;2023-07-08T00:29:12;95381.66;;;20.05;96.40
5691;BME280;2870;42.680;23.364;2023-07-08T00:31:39;95370.28;;;20.05;97.92
5691;BME280;2870;42.680;23.364;2023-07-08T00:34:06;95377.72;;;20.22;96.44
5691;BME280;2870;42.680;23.364;2023-07-08T00:36:35;95361.34;;;20.23;96.96
5691;BME280;2870;42.680;23.364;2023-07-08T00:39:02;95377.97;;;20.15;98.04
5691;BME280;2870;42.680;23.364;2023-07-08T00:41:32;95382.78;;;20.12;96.42
5691;BME280;2870;42.680;23.364;2023-07-08T00:44:01;95373.88;;;20.18;97.53
5691;BME280;2870;42.680;23.364;2023-07-08T00:46:33;95376.69;;;20.41;97.31
5691;BME280;2870;42.680;23.364;2023-07-08T00:49:14;95370.75;;;19.90;96.88
5691;BME280;2870;42.680;23.364;2023-07-08T00:51:43;95363.09;;;19.81;97.35
5691;BME280;2870;42.680;23.364;2023-07-08T00:54:11;95372.63;;;19.85;97.27
5691;BME280;2870;42.680;23.364;2023-07-08T00:56:41;95364.84;;;19.98;97.79
5691;BME280;2870;42.680;23.364;2023-07-08T00:59:12;95359.75;;;19.84;97.83
5691;BME280;2870;42.680;23.364;2023-07-08T01:01:43;95365.69;;;20.00;97.44
5691;BME280;2870;42.680;23.364;2023-07-08T01:04:12;95356.16;;;20.07;97.16
5691;BME280;2870;42.680;23.364;2023-07-08T01:06:44;95356.03;;;19.82;97.13
5691;BME280;2870;42.680;23.364;2023-07-08T01:09:14;95350.19;;;19.68;98.52
5691;BME280;2870;42.680;23.364;2023-07-08T01:11:42;95350.22;;;19.80;98.15
5691;BME280;2870;42.680;23.364;2023-07-08T01:14:11;95342.91;;;19.65;98.55
5691;BME280;2870;42.680;23.364;2023-07-08T01:16:38;95339.94;;;19.75;98.26
5691;BME280;2870;42.680;23.364;2023-07-08T01:19:08;95338.31;;;19.60;99.13
5691;BME280;2870;42.680;23.364;2023-07-08T01:21:44;95340.56;;;19.85;99.37
5691;BME280;2870;42.680;23.364;2023-07-08T01:24:11;95354.41;;;19.67;98.79
5691;BME280;2870;42.680;23.364;2023-07-08T01:26:42;95345.63;;;19.75;99.43
5691;BME280;2870;42.680;23.364;2023-07-08T01:29:10;95342.91;;;19.77;98.82
5691;BME280;2870;42.680;23.364;2023-07-08T01:31:37;95342.22;;;19.43;99.32
5691;BME280;2870;42.680;23.364;2023-07-08T01:34:04;95331.09;;;19.47;98.93
5691;BME280;2870;42.680;23.364;2023-07-08T01:36:37;95338.69;;;19.66;98.43
5691;BME280;2870;42.680;23.364;2023-07-08T01:39:11;95337.28;;;19.55;98.99
5691;BME280;2870;42.680;23.364;2023-07-08T01:41:40;95333.69;;;19.43;99.29
5691;BME280;2870;42.680;23.364;2023-07-08T01:44:20;95336.03;;;19.47;99.14
5691;BME280;2870;42.680;23.364;2023-07-08T01:46:48;95338.31;;;19.72;99.42
5691;BME280;2870;42.680;23.364;2023-07-08T01:49:15;95328.56;;;19.75;98.90
5691;BME280;2870;42.680;23.364;2023-07-08T01:51:42;95333.63;;;19.76;97.64
5691;BME280;2870;42.680;23.364;2023-07-08T01:54:10;95335.47;;;19.72;97.56
5691;BME280;2870;42.680;23.364;2023-07-08T01:56:37;95326.63;;;19.56;98.08
5691;BME280;2870;42.680;23.364;2023-07-08T01:59:03;95332.13;;;19.64;97.79
5691;BME280;2870;42.680;23.364;2023-07-08T02:04:13;95329.69;;;19.93;98.05
5691;BME280;2870;42.680;23.364;2023-07-08T02:06:40;95326.84;;;19.93;96.56
5691;BME280;2870;42.680;23.364;2023-07-08T02:09:07;95329.63;;;19.46;97.66
5691;BME280;2870;42.680;23.364;2023-07-08T02:11:35;95340.41;;;19.59;98.07
5691;BME280;2870;42.680;23.364;2023-07-08T02:14:02;95331.59;;;19.55;97.64
5691;BME280;2870;42.680;23.364;2023-07-08T02:16:29;95346.38;;;19.64;96.97
5691;BME280;2870;42.680;23.364;2023-07-08T02:18:56;95350.69;;;19.65;97.52
5691;BME280;2870;42.680;23.364;2023-07-08T02:21:22;95355.41;;;19.72;98.85
5691;BME280;2870;42.680;23.364;2023-07-08T02:23:50;95346.69;;;19.58;98.21
5691;BME280;2870;42.680;23.364;2023-07-08T02:26:18;95349.72;;;19.72;98.60
5691;BME280;2870;42.680;23.364;2023-07-08T02:28:46;95357.50;;;19.59;97.94
5691;BME280;2870;42.680;23.364;2023-07-08T02:31:13;95364.31;;;19.33;98.67
5691;BME280;2870;42.680;23.364;2023-07-08T02:33:40;95364.69;;;19.39;98.55
5691;BME280;2870;42.680;23.364;2023-07-08T02:36:07;95371.25;;;19.30;98.91
5691;BME280;2870;42.680;23.364;2023-07-08T02:38:33;95367.22;;;19.56;98.21
5691;BME280;2870;42.680;23.364;2023-07-08T02:41:00;95366.53;;;19.68;100.00
5691;BME280;2870;42.680;23.364;2023-07-08T02:43:27;95371.97;;;19.64;97.42
5691;BME280;2870;42.680;23.364;2023-07-08T02:45:55;95365.72;;;19.55;97.65
5691;BME280;2870;42.680;23.364;2023-07-08T02:48:22;95366.06;;;19.38;98.41
5691;BME280;2870;42.680;23.364;2023-07-08T02:50:49;95376.59;;;19.36;98.60
5691;BME280;2870;42.680;23.364;2023-07-08T02:53:15;95383.00;;;19.36;99.07
5691;BME280;2870;42.680;23.364;2023-07-08T02:55:42;95388.69;;;19.36;99.07
5691;BME280;2870;42.680;23.364;2023-07-08T02:58:09;95387.31;;;19.70;100.00
5691;BME280;2870;42.680;23.364;2023-07-08T03:00:36;95395.56;;;19.54;98.31
5691;BME280;2870;42.680;23.364;2023-07-08T03:03:04;95385.16;;;19.47;98.69
5691;BME280;2870;42.680;23.364;2023-07-08T03:05:31;95382.63;;;19.30;98.97
5691;BME280;2870;42.680;23.364;2023-07-08T03:07:58;95383.44;;;19.21;99.05
5691;BME280;2870;42.680;23.364;2023-07-08T03:10:25;95376.69;;;19.38;98.75
5691;BME280;2870;42.680;23.364;2023-07-08T03:12:52;95380.31;;;19.50;97.74
5691;BME280;2870;42.680;23.364;2023-07-08T03:15:19;95378.16;;;19.72;98.94
5691;BME280;2870;42.680;23.364;2023-07-08T03:17:46;95384.53;;;19.49;98.15
5691;BME280;2870;42.680;23.364;2023-07-08T03:20:14;95377.72;;;19.42;97.69
5691;BME280;2870;42.680;23.364;2023-07-08T03:22:41;95384.84;;;19.65;97.65
5691;BME280;2870;42.680;23.364;2023-07-08T03:25:08;95380.91;;;19.81;96.77
5691;BME280;2870;42.680;23.364;2023-07-08T03:27:34;95381.63;;;19.58;97.11
5691;BME280;2870;42.680;23.364;2023-07-08T03:30:01;95381.63;;;19.70;97.55
5691;BME280;2870;42.680;23.364;2023-07-08T03:32:30;95342.09;;;19.41;97.77
5691;BME280;2870;42.680;23.364;2023-07-08T03:34:57;95374.22;;;19.77;98.81
5691;BME280;2870;42.680;23.364;2023-07-08T03:37:25;95374.16;;;19.53;96.61
5691;BME280;2870;42.680;23.364;2023-07-08T03:39:52;95361.34;;;19.64;97.72
5691;BME280;2870;42.680;23.364;2023-07-08T03:42:18;95375.44;;;19.74;97.09
5691;BME280;2870;42.680;23.364;2023-07-08T03:44:45;95365.88;;;19.57;97.36
5691;BME280;2870;42.680;23.364;2023-07-08T03:47:12;95361.06;;;19.60;97.17
5691;BME280;2870;42.680;23.364;2023-07-08T03:49:39;95358.56;;;19.54;97.39
5691;BME280;2870;42.680;23.364;2023-07-08T03:52:11;95352.13;;;19.54;97.66
5691;BME280;2870;42.680;23.364;2023-07-08T03:54:42;95364.81;;;19.74;97.73
5691;BME280;2870;42.680;23.364;2023-07-08T03:57:09;95377.13;;;19.55;96.43
5691;BME280;2870;42.680;23.364;2023-07-08T03:59:36;95366.81;;;19.39;97.57
5691;BME280;2870;42.680;23.364;2023-07-08T04:02:03;95370.94;;;19.47;97.62
5691;BME280;2870;42.680;23.364;2023-07-08T04:04:29;95360.94;;;19.58;97.12
5691;BME280;2870;42.680;23.364;2023-07-08T04:06:56;95361.53;;;19.56;98.47
5691;BME280;2870;42.680;23.364;2023-07-08T04:09:23;95372.66;;;19.52;97.54
5691;BME280;2870;42.680;23.364;2023-07-08T04:11:51;95384.38;;;19.80;97.39
5691;BME280;2870;42.680;23.364;2023-07-08T04:14:18;95388.47;;;20.00;96.73
5691;BME280;2870;42.680;23.364;2023-07-08T04:16:49;95391.19;;;19.98;96.14
5691;BME280;2870;42.680;23.364;2023-07-08T04:19:17;95383.53;;;20.01;96.45
5691;BME280;2870;42.680;23.364;2023-07-08T04:21:45;95381.28;;;19.99;95.50
5691;BME280;2870;42.680;23.364;2023-07-08T04:24:13;95384.41;;;19.92;96.07
5691;BME280;2870;42.680;23.364;2023-07-08T04:26:41;95388.09;;;20.18;96.07
5691;BME280;2870;42.680;23.364;2023-07-08T04:29:13;95386.38;;;20.24;95.08
5691;BME280;2870;42.680;23.364;2023-07-08T04:31:40;95387.38;;;20.05;95.53
5691;BME280;2870;42.680;23.364;2023-07-08T04:34:08;95391.69;;;19.95;95.69
5691;BME280;2870;42.680;23.364;2023-07-08T04:36:35;95399.97;;;20.02;95.12
5691;BME280;2870;42.680;23.364;2023-07-08T04:39:04;95393.53;;;19.90;95.56
5691;BME280;2870;42.680;23.364;2023-07-08T04:41:31;95395.78;;;19.80;95.19
5691;BME280;2870;42.680;23.364;2023-07-08T04:43:58;95396.75;;;19.96;95.31
5691;BME280;2870;42.680;23.364;2023-07-08T04:46:33;95383.41;;;20.10;94.52
5691;BME280;2870;42.680;23.364;2023-07-08T04:49:02;95385.00;;;19.90;94.49
5691;BME280;2870;42.680;23.364;2023-07-08T04:51:31;95398.50;;;20.01;94.49
5691;BME280;2870;42.680;23.364;2023-07-08T04:53:58;95393.94;;;20.20;93.66
5691;BME280;2870;42.680;23.364;2023-07-08T04:56:26;95390.22;;;20.17;93.86
5691;BME280;2870;42.680;23.364;2023-07-08T04:59:01;95402.72;;;20.12;93.64
5691;BME280;2870;42.680;23.364;2023-07-08T05:01:27;95396.78;;;20.20;93.88
5691;BME280;2870;42.680;23.364;2023-07-08T05:03:56;95400.00;;;20.61;92.27
5691;BME280;2870;42.680;23.364;2023-07-08T05:06:23;95403.97;;;20.44;92.67
5691;BME280;2870;42.680;23.364;2023-07-08T05:08:49;95405.44;;;20.57;93.94
5691;BME280;2870;42.680;23.364;2023-07-08T05:11:16;95404.22;;;20.36;92.48
5691;BME280;2870;42.680;23.364;2023-07-08T05:13:43;95416.59;;;20.64;91.78
5691;BME280;2870;42.680;23.364;2023-07-08T05:16:10;95411.38;;;20.73;92.14
5691;BME280;2870;42.680;23.364;2023-07-08T05:18:36;95418.50;;;20.97;90.43
5691;BME280;2870;42.680;23.364;2023-07-08T05:21:05;95416.34;;;20.60;91.16
5691;BME280;2870;42.680;23.364;2023-07-08T05:23:32;95414.84;;;20.83;92.16
5691;BME280;2870;42.680;23.364;2023-07-08T05:26:01;95418.91;;;20.91;90.96
5691;BME280;2870;42.680;23.364;2023-07-08T05:28:28;95423.00;;;20.88;90.97
5691;BME280;2870;42.680;23.364;2023-07-08T05:30:55;95436.25;;;20.96;90.16
5691;BME280;2870;42.680;23.364;2023-07-08T05:33:23;95425.38;;;20.69;89.12
5691;BME280;2870;42.680;23.364;2023-07-08T05:35:50;95431.19;;;20.94;88.87
5691;BME280;2870;42.680;23.364;2023-07-08T05:38:19;95425.50;;;20.82;89.03
5691;BME280;2870;42.680;23.364;2023-07-08T05:40:48;95419.91;;;21.33;88.96
5691;BME280;2870;42.680;23.364;2023-07-08T05:43:15;95415.97;;;21.52;85.76
5691;BME280;2870;42.680;23.364;2023-07-08T05:45:42;95422.19;;;21.49;84.25
5691;BME280;2870;42.680;23.364;2023-07-08T05:48:09;95433.41;;;20.96;87.36
5691;BME280;2870;42.680;23.364;2023-07-08T05:50:36;95431.41;;;20.86;87.74
5691;BME280;2870;42.680;23.364;2023-07-08T05:53:03;95438.91;;;21.54;86.94
5691;BME280;2870;42.680;23.364;2023-07-08T05:55:32;95442.47;;;21.66;85.27
5691;BME280;2870;42.680;23.364;2023-07-08T05:57:59;95441.72;;;21.91;84.25
5691;BME280;2870;42.680;23.364;2023-07-08T06:00:26;95440.84;;;22.14;84.32
5691;BME280;2870;42.680;23.364;2023-07-08T06:02:52;95437.31;;;22.02;82.14
5691;BME280;2870;42.680;23.364;2023-07-08T06:05:19;95445.91;;;21.51;83.98
5691;BME280;2870;42.680;23.364;2023-07-08T06:07:46;95444.06;;;21.69;83.67
5691;BME280;2870;42.680;23.364;2023-07-08T06:10:13;95454.31;;;22.00;84.11
5691;BME280;2870;42.680;23.364;2023-07-08T06:12:41;95452.75;;;21.72;82.63
5691;BME280;2870;42.680;23.364;2023-07-08T06:15:08;95444.41;;;21.76;83.28
5691;BME280;2870;42.680;23.364;2023-07-08T06:17:35;95441.88;;;22.07;83.68
5691;BME280;2870;42.680;23.364;2023-07-08T06:20:02;95450.13;;;22.54;81.54
5691;BME280;2870;42.680;23.364;2023-07-08T06:22:29;95458.22;;;22.18;80.41
5691;BME280;2870;42.680;23.364;2023-07-08T06:24:56;95464.03;;;22.20;81.16
5691;BME280;2870;42.680;23.364;2023-07-08T06:27:22;95467.78;;;22.37;80.04
5691;BME280;2870;42.680;23.364;2023-07-08T06:29:52;95469.47;;;22.03;78.92
5691;BME280;2870;42.680;23.364;2023-07-08T06:32:19;95480.59;;;21.59;81.18
5691;BME280;2870;42.680;23.364;2023-07-08T06:34:46;95469.88;;;21.72;82.06
5691;BME280;2870;42.680;23.364;2023-07-08T06:37:13;95460.34;;;22.32;81.39
5691;BME280;2870;42.680;23.364;2023-07-08T06:39:39;95463.88;;;22.44;78.77
5691;BME280;2870;42.680;23.364;2023-07-08T06:42:06;95454.78;;;22.08;78.85
5691;BME280;2870;42.680;23.364;2023-07-08T06:44:33;95458.44;;;21.97;79.36
5691;BME280;2870;42.680;23.364;2023-07-08T06:47:01;95455.38;;;21.67;79.34
5691;BME280;2870;42.680;23.364;2023-07-08T06:49:28;95459.00;;;22.07;78.18
5691;BME280;2870;42.680;23.364;2023-07-08T06:51:55;95457.16;;;22.26;79.19
5691;BME280;2870;42.680;23.364;2023-07-08T06:54:25;95460.84;;;22.14;78.35
5691;BME280;2870;42.680;23.364;2023-07-08T06:56:53;95470.22;;;22.56;78.20
5691;BME280;2870;42.680;23.364;2023-07-08T06:59:20;95465.06;;;22.66;75.84
5691;BME280;2870;42.680;23.364;2023-07-08T07:01:46;95464.94;;;22.51;74.25
5691;BME280;2870;42.680;23.364;2023-07-08T07:04:14;95475.34;;;22.71;74.24
5691;BME280;2870;42.680;23.364;2023-07-08T07:06:42;95469.22;;;23.05;72.63
5691;BME280;2870;42.680;23.364;2023-07-08T07:09:08;95464.72;;;22.74;72.56
5691;BME280;2870;42.680;23.364;2023-07-08T07:11:35;95469.81;;;23.17;72.75
5691;BME280;2870;42.680;23.364;2023-07-08T07:14:02;95462.75;;;23.04;70.45
5691;BME280;2870;42.680;23.364;2023-07-08T07:16:29;95421.31;;;22.36;71.87
5691;BME280;2870;42.680;23.364;2023-07-08T07:18:56;95471.63;;;22.83;72.02
5691;BME280;2870;42.680;23.364;2023-07-08T07:21:24;95464.38;;;22.40;71.89
5691;BME280;2870;42.680;23.364;2023-07-08T07:23:51;95478.66;;;22.27;72.16
5691;BME280;2870;42.680;23.364;2023-07-08T07:26:17;95470.44;;;22.07;74.74
5691;BME280;2870;42.680;23.364;2023-07-08T07:28:44;95481.09;;;22.18;73.91
5691;BME280;2870;42.680;23.364;2023-07-08T07:31:11;95484.94;;;22.37;74.33
5691;BME280;2870;42.680;23.364;2023-07-08T07:33:37;95480.59;;;22.36;73.14
5691;BME280;2870;42.680;23.364;2023-07-08T07:36:04;95502.09;;;22.51;72.63
5691;BME280;2870;42.680;23.364;2023-07-08T07:38:33;95505.88;;;23.22;71.10
5691;BME280;2870;42.680;23.364;2023-07-08T07:41:00;95493.47;;;23.04;70.74
5691;BME280;2870;42.680;23.364;2023-07-08T07:43:31;95500.75;;;23.34;69.65
5691;BME280;2870;42.680;23.364;2023-07-08T07:45:58;95506.94;;;23.15;71.36
5691;BME280;2870;42.680;23.364;2023-07-08T07:48:25;95488.97;;;23.42;71.14
5691;BME280;2870;42.680;23.364;2023-07-08T07:50:52;95443.84;;;23.70;67.31
5691;BME280;2870;42.680;23.364;2023-07-08T07:53:18;95491.28;;;24.18;68.29
5691;BME280;2870;42.680;23.364;2023-07-08T07:55:47;95501.81;;;24.14;67.68
5691;BME280;2870;42.680;23.364;2023-07-08T07:58:13;95498.88;;;25.22;64.25
5691;BME280;2870;42.680;23.364;2023-07-08T08:00:40;95497.00;;;24.18;66.10
5691;BME280;2870;42.680;23.364;2023-07-08T08:03:07;95498.75;;;24.71;66.71
5691;BME280;2870;42.680;23.364;2023-07-08T08:05:34;95504.97;;;25.64;64.22
5691;BME280;2870;42.680;23.364;2023-07-08T08:08:00;95491.66;;;25.21;62.25
5691;BME280;2870;42.680;23.364;2023-07-08T08:10:29;95504.84;;;25.78;60.58
5691;BME280;2870;42.680;23.364;2023-07-08T08:12:57;95500.97;;;26.80;61.63
5691;BME280;2870;42.680;23.364;2023-07-08T08:15:24;95492.19;;;26.76;58.00
5691;BME280;2870;42.680;23.364;2023-07-08T08:17:51;95498.72;;;26.59;59.18
5691;BME280;2870;42.680;23.364;2023-07-08T08:20:18;95497.44;;;26.26;58.69
5691;BME280;2870;42.680;23.364;2023-07-08T08:22:46;95497.22;;;25.84;60.04
5691;BME280;2870;42.680;23.364;2023-07-08T08:25:13;95493.84;;;25.38;61.04
5691;BME280;2870;42.680;23.364;2023-07-08T08:27:41;95505.28;;;25.88;58.69
5691;BME280;2870;42.680;23.364;2023-07-08T08:30:11;95501.41;;;26.17;59.50
5691;BME280;2870;42.680;23.364;2023-07-08T08:32:38;95492.72;;;27.10;56.45
5691;BME280;2870;42.680;23.364;2023-07-08T08:35:06;95499.50;;;25.70;59.48
5691;BME280;2870;42.680;23.364;2023-07-08T08:37:33;95495.97;;;26.25;58.22
5691;BME280;2870;42.680;23.364;2023-07-08T08:40:00;95489.84;;;27.72;55.91
5691;BME280;2870;42.680;23.364;2023-07-08T08:42:30;95486.56;;;27.00;56.10
5691;BME280;2870;42.680;23.364;2023-07-08T08:45:00;95487.53;;;26.11;58.93
5691;BME280;2870;42.680;23.364;2023-07-08T08:47:35;95485.72;;;26.95;56.04
5691;BME280;2870;42.680;23.364;2023-07-08T08:50:10;95488.22;;;27.25;56.90
5691;BME280;2870;42.680;23.364;2023-07-08T08:52:41;95482.03;;;27.13;55.34
5691;BME280;2870;42.680;23.364;2023-07-08T08:55:11;95491.16;;;27.27;54.54
5691;BME280;2870;42.680;23.364;2023-07-08T08:57:43;95495.94;;;26.61;56.24
5691;BME280;2870;42.680;23.364;2023-07-08T09:00:17;95496.94;;;26.32;58.77
5691;BME280;2870;42.680;23.364;2023-07-08T09:02:58;95489.00;;;27.47;55.61
5691;BME280;2870;42.680;23.364;2023-07-08T09:05:26;95492.78;;;27.32;55.86
5691;BME280;2870;42.680;23.364;2023-07-08T09:08:02;95485.66;;;27.13;54.24
5691;BME280;2870;42.680;23.364;2023-07-08T09:10:42;95481.66;;;27.03;55.29
5691;BME280;2870;42.680;23.364;2023-07-08T09:13:16;95463.03;;;26.28;55.42
5691;BME280;2870;42.680;23.364;2023-07-08T09:15:47;95478.22;;;26.31;57.09
5691;BME280;2870;42.680;23.364;2023-07-08T09:18:21;95470.66;;;27.17;54.82
5691;BME280;2870;42.680;23.364;2023-07-08T09:20:53;95477.44;;;28.33;52.54
5691;BME280;2870;42.680;23.364;2023-07-08T09:23:24;95475.16;;;28.08;52.90
5691;BME280;2870;42.680;23.364;2023-07-08T09:25:58;95480.19;;;27.85;53.65
5691;BME280;2870;42.680;23.364;2023-07-08T09:28:36;95474.84;;;28.67;50.98
5691;BME280;2870;42.680;23.364;2023-07-08T09:31:05;95483.00;;;29.51;50.38
5691;BME280;2870;42.680;23.364;2023-07-08T09:33:38;95474.03;;;27.95;50.80
5691;BME280;2870;42.680;23.364;2023-07-08T09:36:16;95474.25;;;28.95;51.45
5691;BME280;2870;42.680;23.364;2023-07-08T09:38:47;95456.75;;;28.65;49.62
5691;BME280;2870;42.680;23.364;2023-07-08T09:41:28;95463.31;;;28.67;50.62
5691;BME280;2870;42.680;23.364;2023-07-08T09:44:06;95471.00;;;29.09;49.11
5691;BME280;2870;42.680;23.364;2023-07-08T09:46:39;95461.25;;;27.78;51.31
5691;BME280;2870;42.680;23.364;2023-07-08T09:49:26;95452.31;;;27.28;51.40
5691;BME280;2870;42.680;23.364;2023-07-08T09:51:54;95445.84;;;27.50;52.02
5691;BME280;2870;42.680;23.364;2023-07-08T09:54:22;95449.84;;;28.76;54.55
5691;BME280;2870;42.680;23.364;2023-07-08T09:56:59;95452.63;;;28.72;50.06
5691;BME280;2870;42.680;23.364;2023-07-08T09:59:32;95447.47;;;28.44;50.14
5691;BME280;2870;42.680;23.364;2023-07-08T10:02:02;95458.22;;;28.92;49.61
5691;BME280;2870;42.680;23.364;2023-07-08T10:04:31;95444.97;;;27.67;51.91
5691;BME280;2870;42.680;23.364;2023-07-08T10:06:59;95450.75;;;29.07;50.12
5691;BME280;2870;42.680;23.364;2023-07-08T10:09:26;95451.66;;;29.67;48.46
5691;BME280;2870;42.680;23.364;2023-07-08T10:11:58;95439.81;;;29.03;47.85
5691;BME280;2870;42.680;23.364;2023-07-08T10:14:31;95440.06;;;28.87;48.93
5691;BME280;2870;42.680;23.364;2023-07-08T10:17:00;95434.78;;;28.08;48.79
5691;BME280;2870;42.680;23.364;2023-07-08T10:19:27;95411.53;;;28.02;48.38
5691;BME280;2870;42.680;23.364;2023-07-08T10:22:05;95442.19;;;29.65;48.08
5691;BME280;2870;42.680;23.364;2023-07-08T10:24:48;95442.25;;;30.27;47.02
5691;BME280;2870;42.680;23.364;2023-07-08T10:27:24;95436.22;;;29.87;44.59
5691;BME280;2870;42.680;23.364;2023-07-08T10:29:55;95436.94;;;28.79;46.57
5691;BME280;2870;42.680;23.364;2023-07-08T10:32:34;95441.31;;;27.42;49.04
5691;BME280;2870;42.680;23.364;2023-07-08T10:35:10;95428.13;;;28.25;50.84
5691;BME280;2870;42.680;23.364;2023-07-08T10:37:53;95427.69;;;28.59;47.85
5691;BME280;2870;42.680;23.364;2023-07-08T10:40:41;95426.25;;;29.36;48.00
5691;BME280;2870;42.680;23.364;2023-07-08T10:43:30;95413.69;;;29.25;47.17
5691;BME280;2870;42.680;23.364;2023-07-08T10:46:08;95418.78;;;30.13;46.20
5691;BME280;2870;42.680;23.364;2023-07-08T10:51:49;95411.78;;;29.08;47.71
5691;BME280;2870;42.680;23.364;2023-07-08T10:54:38;95402.88;;;28.02;48.10
5691;BME280;2870;42.680;23.364;2023-07-08T10:57:19;95408.59;;;27.99;48.50
5691;BME280;2870;42.680;23.364;2023-07-08T10:59:58;95396.19;;;28.93;46.73
5691;BME280;2870;42.680;23.364;2023-07-08T11:05:28;95400.25;;;29.10;48.08
5691;BME280;2870;42.680;23.364;2023-07-08T11:08:02;95398.72;;;28.81;48.03
5691;BME280;2870;42.680;23.364;2023-07-08T11:10:35;95403.06;;;29.06;47.10
5691;BME280;2870;42.680;23.364;2023-07-08T11:13:06;95399.06;;;29.47;44.27
5691;BME280;2870;42.680;23.364;2023-07-08T11:15:43;95392.09;;;29.00;45.77
5691;BME280;2870;42.680;23.364;2023-07-08T11:18:15;95379.19;;;28.29;49.41
5691;BME280;2870;42.680;23.364;2023-07-08T11:20:48;95388.78;;;28.60;47.72
5691;BME280;2870;42.680;23.364;2023-07-08T11:23:23;95384.78;;;28.23;46.75
5691;BME280;2870;42.680;23.364;2023-07-08T11:26:07;95371.59;;;28.16;47.79
5691;BME280;2870;42.680;23.364;2023-07-08T11:28:36;95371.00;;;28.69;49.52
5691;BME280;2870;42.680;23.364;2023-07-08T11:31:04;95368.91;;;28.72;46.57
5691;BME280;2870;42.680;23.364;2023-07-08T11:33:33;95372.59;;;29.00;45.22
5691;BME280;2870;42.680;23.364;2023-07-08T11:36:02;95369.44;;;29.18;46.49
5691;BME280;2870;42.680;23.364;2023-07-08T11:38:31;95374.81;;;29.30;46.11
5691;BME280;2870;42.680;23.364;2023-07-08T11:41:02;95373.44;;;29.33;44.20
5691;BME280;2870;42.680;23.364;2023-07-08T11:43:34;95390.25;;;29.69;44.31
5691;BME280;2870;42.680;23.364;2023-07-08T11:46:05;95370.41;;;28.99;46.12
5691;BME280;2870;42.680;23.364;2023-07-08T11:48:40;95376.75;;;29.21;44.53
5691;BME280;2870;42.680;23.364;2023-07-08T11:51:09;95378.28;;;28.46;46.85
5691;BME280;2870;42.680;23.364;2023-07-08T11:53:47;95387.31;;;29.11;46.18
5691;BME280;2870;42.680;23.364;2023-07-08T11:56:25;95391.75;;;29.16;44.36
5691;BME280;2870;42.680;23.364;2023-07-08T11:59:12;95374.84;;;28.78;45.55
5691;BME280;2870;42.680;23.364;2023-07-08T12:01:47;95376.88;;;28.47;46.43
5691;BME280;2870;42.680;23.364;2023-07-08T12:04:24;95369.00;;;28.76;46.55
5691;BME280;2870;42.680;23.364;2023-07-08T12:07:05;95371.88;;;28.76;44.55
5691;BME280;2870;42.680;23.364;2023-07-08T12:09:37;95370.38;;;28.73;45.90
5691;BME280;2870;42.680;23.364;2023-07-08T12:12:16;95368.91;;;27.98;45.75
5691;BME280;2870;42.680;23.364;2023-07-08T12:14:45;95365.31;;;27.54;46.56
5691;BME280;2870;42.680;23.364;2023-07-08T12:17:13;95373.59;;;28.33;47.77
5691;BME280;2870;42.680;23.364;2023-07-08T12:19:43;95362.66;;;27.38;48.25
5691;BME280;2870;42.680;23.364;2023-07-08T12:22:10;95364.25;;;27.65;47.26
5691;BME280;2870;42.680;23.364;2023-07-08T12:24:38;95355.53;;;28.33;47.83
5691;BME280;2870;42.680;23.364;2023-07-08T12:27:09;95361.59;;;28.69;47.25
5691;BME280;2870;42.680;23.364;2023-07-08T12:29:36;95357.53;;;28.28;48.64
5691;BME280;2870;42.680;23.364;2023-07-08T12:32:03;95364.19;;;28.09;49.04
5691;BME280;2870;42.680;23.364;2023-07-08T12:34:31;95361.41;;;27.89;46.35
5691;BME280;2870;42.680;23.364;2023-07-08T12:36:58;95355.50;;;27.85;47.13
5691;BME280;2870;42.680;23.364;2023-07-08T12:39:25;95343.75;;;28.00;46.72
5691;BME280;2870;42.680;23.364;2023-07-08T12:41:52;95342.97;;;27.30;48.17
5691;BME280;2870;42.680;23.364;2023-07-08T12:44:22;95342.66;;;27.66;48.31
5691;BME280;2870;42.680;23.364;2023-07-08T12:46:52;95353.78;;;28.47;47.88
5691;BME280;2870;42.680;23.364;2023-07-08T12:49:19;95348.78;;;27.76;48.32
5691;BME280;2870;42.680;23.364;2023-07-08T12:51:47;95339.78;;;27.66;48.46
5691;BME280;2870;42.680;23.364;2023-07-08T12:54:14;95346.69;;;28.03;48.67
5691;BME280;2870;42.680;23.364;2023-07-08T12:56:44;95347.84;;;27.47;48.24
5691;BME280;2870;42.680;23.364;2023-07-08T12:59:14;95340.13;;;27.54;48.37
5691;BME280;2870;42.680;23.364;2023-07-08T13:01:45;95350.69;;;27.91;50.10
5691;BME280;2870;42.680;23.364;2023-07-08T13:04:14;95355.03;;;27.92;48.11
5691;BME280;2870;42.680;23.364;2023-07-08T13:06:43;95345.22;;;27.34;48.33
5691;BME280;2870;42.680;23.364;2023-07-08T13:09:25;95349.38;;;27.51;49.12
5691;BME280;2870;42.680;23.364;2023-07-08T13:11:57;95349.69;;;28.07;48.09
5691;BME280;2870;42.680;23.364;2023-07-08T13:14:24;95357.84;;;27.90;47.38
5691;BME280;2870;42.680;23.364;2023-07-08T13:16:53;95358.38;;;27.85;47.37
5691;BME280;2870;42.680;23.364;2023-07-08T13:19:20;95357.69;;;28.08;47.36
5691;BME280;2870;42.680;23.364;2023-07-08T13:21:48;95349.44;;;27.53;46.93
5691;BME280;2870;42.680;23.364;2023-07-08T13:24:15;95348.34;;;27.86;48.21
5691;BME280;2870;42.680;23.364;2023-07-08T13:26:46;95346.78;;;27.37;46.50
5691;BME280;2870;42.680;23.364;2023-07-08T13:29:15;95348.03;;;27.54;47.85
5691;BME280;2870;42.680;23.364;2023-07-08T13:31:46;95354.53;;;27.76;46.56